Time;durP1;ratioP1;P1;durP2;ratioP2;P2;SDS_P1;SDS_P2;PMS_P1;PMS_P2;Temp;Humidity;BMP_temperature;BMP_pressure;BME280_temperature;BME280_humidity;BME280_pressure;Samples;Min_cycle;Max_cycle;Signal;HPM_P1;HPM_P2
2022/12/13 00:01:24;;;;;;;11.38;5.78;;;18.70;52.10;;;;;;5031953;28;20049;-78
2022/12/13 00:03:54;;;;;;;11.32;5.53;;;18.70;52.80;;;;;;5031857;28;20169;-77
2022/12/13 00:06:20;;;;;;;14.48;5.20;;;18.70;52.20;;;;;;5032204;28;20036;-76
2022/12/13 00:08:46;;;;;;;10.02;5.43;;;18.70;52.30;;;;;;5015822;28;20022;-76
2022/12/13 00:11:13;;;;;;;11.80;5.32;;;18.70;52.00;;;;;;5011261;28;20029;-75
2022/12/13 00:13:40;;;;;;;9.07;5.72;;;18.60;51.80;;;;;;5010584;28;20167;-76
2022/12/13 00:16:11;;;;;;;13.20;5.57;;;18.60;51.70;;;;;;5011206;28;20548;-77
2022/12/13 00:18:37;;;;;;;13.35;4.85;;;18.60;51.20;;;;;;5029050;28;20504;-83
2022/12/13 00:21:05;;;;;;;14.73;5.15;;;18.60;51.00;;;;;;5031942;28;20033;-75
2022/12/13 00:23:31;;;;;;;10.98;5.30;;;18.60;51.10;;;;;;5030696;28;20108;-75
2022/12/13 00:26:05;;;;;;;16.80;5.15;;;18.70;51.10;;;;;;5029339;28;20026;-75
2022/12/13 00:28:31;;;;;;;16.40;5.25;;;18.60;51.10;;;;;;5028865;28;20048;-75
2022/12/13 00:30:58;;;;;;;11.45;5.47;;;18.60;51.10;;;;;;5029127;28;20041;-76
2022/12/13 00:33:24;;;;;;;14.10;5.10;;;18.60;51.00;;;;;;5030224;28;20343;-75
2022/12/13 00:35:51;;;;;;;16.88;5.53;;;18.60;51.20;;;;;;5031505;28;20033;-75
2022/12/13 00:38:17;;;;;;;11.10;4.72;;;18.60;51.30;;;;;;5031636;28;20116;-75
2022/12/13 00:40:42;;;;;;;11.50;4.68;;;18.60;51.20;;;;;;5029209;28;20108;-75
2022/12/13 00:43:08;;;;;;;12.18;4.78;;;18.60;51.30;;;;;;5030097;28;20022;-76
2022/12/13 00:45:34;;;;;;;13.52;4.68;;;18.60;51.30;;;;;;5029613;28;20067;-76
2022/12/13 00:48:00;;;;;;;10.32;4.68;;;18.60;51.30;;;;;;5009211;28;20169;-84
2022/12/13 00:50:25;;;;;;;14.23;4.55;;;18.60;51.50;;;;;;5019793;28;20052;-74
2022/12/13 00:52:51;;;;;;;18.23;5.18;;;18.60;52.20;;;;;;5024938;28;20492;-74
2022/12/13 00:55:17;;;;;;;13.60;5.43;;;18.60;51.80;;;;;;5024674;28;20040;-74
2022/12/13 00:57:43;;;;;;;9.43;4.65;;;18.60;51.80;;;;;;5029422;28;20036;-74
2022/12/13 01:00:09;;;;;;;9.45;4.80;;;18.60;51.70;;;;;;5030052;28;20479;-75
2022/12/13 01:02:35;;;;;;;14.98;4.75;;;18.60;51.80;;;;;;5029218;28;20389;-75
2022/12/13 01:05:01;;;;;;;14.52;4.95;;;18.60;52.00;;;;;;5028902;28;20025;-74
2022/12/13 01:07:26;;;;;;;10.43;4.95;;;18.60;52.50;;;;;;5029192;28;20017;-75
2022/12/13 01:09:52;;;;;;;8.02;4.47;;;18.60;52.00;;;;;;5030058;28;20033;-74
2022/12/13 01:12:18;;;;;;;12.85;4.82;;;18.60;52.10;;;;;;5031325;28;20037;-74
2022/12/13 01:14:44;;;;;;;12.98;4.90;;;18.60;52.40;;;;;;5028710;28;20061;-75
2022/12/13 01:17:10;;;;;;;16.02;4.90;;;18.60;52.60;;;;;;5029050;28;20097;-75
2022/12/13 01:19:35;;;;;;;13.57;4.55;;;18.60;52.20;;;;;;5029355;28;20021;-75
2022/12/13 01:22:05;;;;;;;11.07;4.60;;;18.60;52.40;;;;;;5030489;28;20029;-74
2022/12/13 01:24:31;;;;;;;16.48;4.90;;;18.60;52.10;;;;;;5029666;28;20021;-75
2022/12/13 01:26:58;;;;;;;11.02;4.30;;;18.60;52.00;;;;;;5032683;28;20060;-75
2022/12/13 01:29:25;;;;;;;10.90;4.80;;;18.60;51.80;;;;;;5033184;28;20519;-75
2022/12/13 01:31:52;;;;;;;12.10;4.60;;;18.60;51.80;;;;;;5031731;28;20025;-74
2022/12/13 01:34:20;;;;;;;20.88;5.32;;;18.60;51.60;;;;;;5030866;28;20032;-74
2022/12/13 01:36:46;;;;;;;12.27;4.93;;;18.60;51.60;;;;;;5034789;28;20035;-74
2022/12/13 01:39:15;;;;;;;9.20;4.30;;;18.60;51.50;;;;;;5033620;28;20033;-74
2022/12/13 01:41:42;;;;;;;10.45;4.20;;;18.60;51.60;;;;;;5033703;28;20124;-75
2022/12/13 01:44:45;;;;;;;8.93;4.50;;;18.60;51.60;;;;;;5031414;28;20056;-74
2022/12/13 01:47:14;;;;;;;10.82;4.50;;;18.60;51.50;;;;;;5028031;28;20026;-75
2022/12/13 01:49:40;;;;;;;14.48;4.20;;;18.50;51.50;;;;;;5028454;28;20481;-74
2022/12/13 01:52:09;;;;;;;12.20;4.38;;;18.50;51.50;;;;;;5032790;28;20368;-75
2022/12/13 01:54:39;;;;;;;9.52;4.47;;;18.60;51.60;;;;;;5033316;28;20029;-75
2022/12/13 01:57:08;;;;;;;11.70;4.57;;;18.50;51.60;;;;;;5033344;28;20057;-74
2022/12/13 01:59:36;;;;;;;12.40;5.30;;;18.50;52.00;;;;;;5032207;28;20040;-74
2022/12/13 02:02:03;;;;;;;8.93;4.38;;;18.50;52.20;;;;;;5027542;28;20397;-75
2022/12/13 02:04:39;;;;;;;16.88;4.63;;;18.60;52.90;;;;;;4995944;28;20076;-75
2022/12/13 02:07:05;;;;;;;12.73;4.65;;;18.60;52.60;;;;;;5032550;28;20029;-74
2022/12/13 02:09:31;;;;;;;11.38;4.05;;;18.50;52.40;;;;;;5033873;28;20026;-75
2022/12/13 02:11:57;;;;;;;7.78;4.18;;;18.60;52.30;;;;;;5031583;28;20469;-74
2022/12/13 02:14:23;;;;;;;11.18;4.57;;;18.50;52.00;;;;;;5032589;28;20018;-74
2022/12/13 02:16:55;;;;;;;12.73;4.57;;;18.50;51.90;;;;;;5034617;28;20420;-74
2022/12/13 02:19:45;;;;;;;8.73;4.25;;;18.50;52.20;;;;;;5032974;28;20029;-75
2022/12/13 02:22:19;;;;;;;8.80;4.30;;;18.60;52.20;;;;;;5026109;28;20097;-74
2022/12/13 02:25:06;;;;;;;9.98;4.20;;;18.60;52.00;;;;;;5031536;28;20056;-74
2022/12/13 02:28:07;;;;;;;10.23;4.22;;;18.60;51.80;;;;;;5031196;28;20029;-74
2022/12/13 02:30:42;;;;;;;10.63;4.60;;;18.50;51.80;;;;;;5017729;28;20029;-74
2022/12/13 02:33:39;;;;;;;8.23;3.97;;;18.60;52.10;;;;;;5024852;28;20036;-74
2022/12/13 02:36:19;;;;;;;12.23;4.50;;;18.60;52.00;;;;;;5032947;28;20469;-74
2022/12/13 02:39:01;;;;;;;14.20;4.47;;;18.60;52.00;;;;;;5031060;28;20048;-74
2022/12/13 02:41:36;;;;;;;9.13;4.25;;;18.50;51.90;;;;;;5031668;28;20477;-75
2022/12/13 02:44:25;;;;;;;10.25;4.05;;;18.50;51.80;;;;;;5032352;28;20670;-75
2022/12/13 02:47:01;;;;;;;16.42;4.35;;;18.60;52.50;;;;;;5032584;28;20018;-75
2022/12/13 02:49:31;;;;;;;10.45;4.13;;;18.50;52.10;;;;;;5031062;28;20448;-75
2022/12/13 02:51:59;;;;;;;9.10;3.55;;;18.50;52.20;;;;;;5033498;28;20025;-75
2022/12/13 02:54:25;;;;;;;10.68;3.92;;;18.50;52.00;;;;;;5030769;28;20044;-75
2022/12/13 02:56:57;;;;;;;9.95;4.53;;;18.50;52.20;;;;;;5032637;28;20029;-75
2022/12/13 02:59:29;;;;;;;11.65;3.97;;;18.50;52.00;;;;;;5029317;28;20095;-75
2022/12/13 03:02:01;;;;;;;9.75;4.20;;;18.50;52.10;;;;;;5032424;28;20105;-75
2022/12/13 03:06:28;;;;;;;10.65;4.60;;;18.60;52.10;;;;;;5030572;28;20021;-75
2022/12/13 03:07:37;;;;;;;9.38;3.90;;;18.60;52.80;;;;;;5026461;28;20021;-75
2022/12/13 03:10:16;;;;;;;14.35;4.60;;;18.50;52.20;;;;;;5024575;28;20030;-75
2022/12/13 03:13:37;;;;;;;10.23;3.92;;;18.50;52.70;;;;;;5032270;28;20104;-74
2022/12/13 03:16:08;;;;;;;;;;;18.60;53.00;;;;;;5017388;28;20552;-74
2022/12/13 03:18:35;;;;;;;18.75;4.03;;;18.60;52.70;;;;;;5033091;28;19909;-75
2022/12/13 03:21:04;;;;;;;11.82;4.18;;;18.60;53.60;;;;;;5013276;28;20443;-74
2022/12/13 03:23:30;;;;;;;12.23;4.40;;;18.50;54.90;;;;;;5024221;28;20100;-75
2022/12/13 03:26:03;;;;;;;10.10;3.97;;;18.50;53.20;;;;;;5031428;28;20032;-77
2022/12/13 03:28:29;;;;;;;17.70;4.90;;;18.40;53.50;;;;;;5019478;28;20033;-72
2022/12/13 03:30:55;;;;;;;18.88;5.60;;;18.40;53.50;;;;;;5026661;28;20399;-73
2022/12/13 03:33:21;;;;;;;17.65;5.15;;;18.40;53.90;;;;;;5030403;28;20021;-73
2022/12/13 03:35:47;;;;;;;12.30;5.50;;;18.40;53.80;;;;;;5029427;28;20044;-73
2022/12/13 03:38:15;;;;;;;15.93;5.30;;;18.30;53.70;;;;;;5029196;28;20029;-73
2022/12/13 03:40:41;;;;;;;14.95;4.95;;;18.30;54.10;;;;;;5022701;28;20033;-73
2022/12/13 03:43:07;;;;;;;10.75;5.25;;;18.30;54.20;;;;;;5009898;28;20025;-73
2022/12/13 03:45:33;;;;;;;15.43;5.25;;;18.30;54.30;;;;;;5028822;28;20021;-73
2022/12/13 03:47:59;;;;;;;13.68;5.15;;;18.30;54.40;;;;;;5030452;28;20022;-73
2022/12/13 03:50:24;;;;;;;9.48;4.50;;;18.30;54.30;;;;;;5025195;28;20187;-73
2022/12/13 03:52:56;;;;;;;18.23;5.35;;;18.30;54.30;;;;;;5027704;28;20445;-73
2022/12/13 03:55:22;;;;;;;12.10;4.90;;;18.30;54.30;;;;;;5028710;28;20466;-73
2022/12/13 03:57:48;;;;;;;11.27;5.07;;;18.30;54.40;;;;;;5030265;28;20397;-74
2022/12/13 04:00:14;;;;;;;14.32;5.82;;;18.30;54.50;;;;;;5029080;28;20018;-73
2022/12/13 04:02:39;;;;;;;11.27;4.72;;;18.30;54.50;;;;;;5029573;28;20083;-74
2022/12/13 04:05:05;;;;;;;10.60;4.80;;;18.30;54.50;;;;;;5028727;28;20022;-72
2022/12/13 04:07:31;;;;;;;16.30;4.80;;;18.40;54.20;;;;;;5010802;28;20385;-72
2022/12/13 04:09:57;;;;;;;13.50;4.97;;;18.30;54.00;;;;;;5028409;28;20044;-74
2022/12/13 04:15:15;;;;;;;9.90;4.28;;;18.40;54.40;;;;;;5027151;28;20045;-74
2022/12/13 04:17:40;;;;;;;14.20;6.50;;;18.40;54.20;;;;;;5028603;28;20116;-74
2022/12/13 04:20:07;;;;;;;10.32;5.85;;;18.50;53.50;;;;;;5027333;28;20037;-77
2022/12/13 04:22:32;;;;;;;18.23;9.70;;;18.40;53.70;;;;;;5027992;28;20029;-77
2022/12/13 04:24:58;;;;;;;17.45;10.15;;;18.20;47.60;;;;;;5029290;28;20013;-75
2022/12/13 04:27:24;;;;;;;19.02;8.75;;;18.10;45.00;;;;;;5030168;28;20021;-75
2022/12/13 04:29:50;;;;;;;14.65;7.28;;;18.10;47.10;;;;;;5014416;28;20500;-75
2022/12/13 04:32:15;;;;;;;33.90;8.13;;;18.10;48.10;;;;;;5031565;28;20336;-74
2022/12/13 04:34:41;;;;;;;22.17;7.30;;;18.10;48.80;;;;;;5031340;28;20046;-75
2022/12/13 04:37:08;;;;;;;20.70;6.65;;;18.20;49.30;;;;;;5030357;28;20050;-75
2022/12/13 04:39:34;;;;;;;14.52;6.88;;;18.20;49.60;;;;;;5031603;28;20461;-76
2022/12/13 04:42:00;;;;;;;14.88;5.95;;;18.20;49.80;;;;;;5030348;28;20028;-75
2022/12/13 04:44:26;;;;;;;11.98;6.30;;;18.20;50.00;;;;;;5029999;28;20025;-75
2022/12/13 04:46:51;;;;;;;14.70;5.97;;;18.30;50.20;;;;;;5031636;28;20021;-75
2022/12/13 04:49:17;;;;;;;12.90;5.72;;;18.30;50.30;;;;;;5031402;28;20036;-75
2022/12/13 04:51:43;;;;;;;9.93;5.18;;;18.30;50.40;;;;;;5013814;28;20056;-75
2022/12/13 04:54:09;;;;;;;14.45;5.10;;;18.30;50.50;;;;;;5030991;28;20036;-75
2022/12/13 04:56:36;;;;;;;13.15;5.72;;;18.30;50.50;;;;;;5031243;28;20034;-75
2022/12/13 04:59:01;;;;;;;11.35;5.82;;;18.30;50.50;;;;;;5031401;28;20029;-75
2022/12/13 05:01:27;;;;;;;10.43;5.07;;;18.30;50.70;;;;;;5013736;28;20116;-75
2022/12/13 05:03:53;;;;;;;11.43;4.97;;;18.30;50.80;;;;;;5028133;28;20056;-75
2022/12/13 05:06:18;;;;;;;10.75;5.00;;;18.30;50.80;;;;;;5023426;28;20119;-74
2022/12/13 05:08:44;;;;;;;11.23;5.07;;;18.30;50.70;;;;;;5026736;28;20422;-75
2022/12/13 05:11:10;;;;;;;11.98;4.80;;;18.30;50.80;;;;;;5030478;28;20474;-75
2022/12/13 05:13:36;;;;;;;10.10;4.75;;;18.30;50.70;;;;;;5030499;28;20075;-75
2022/12/13 05:16:06;;;;;;;12.45;4.78;;;18.30;50.90;;;;;;5031175;28;20033;-74
2022/12/13 05:18:32;;;;;;;8.80;4.70;;;18.30;50.90;;;;;;5031116;28;20030;-75
2022/12/13 05:21:07;;;;;;;10.45;4.68;;;18.30;51.10;;;;;;5030202;28;20462;-74
2022/12/13 05:23:33;;;;;;;11.25;4.45;;;18.30;50.70;;;;;;5030710;28;20053;-75
2022/12/13 05:25:59;;;;;;;15.13;5.00;;;18.40;50.90;;;;;;5027223;28;20064;-74
2022/12/13 05:28:27;;;;;;;9.52;4.43;;;18.40;50.80;;;;;;5031058;28;20060;-75
2022/12/13 05:30:54;;;;;;;17.33;4.85;;;18.40;51.00;;;;;;5028856;28;20461;-74
2022/12/13 05:33:21;;;;;;;7.45;3.92;;;18.40;51.00;;;;;;5029596;28;20047;-75
2022/12/13 05:35:47;;;;;;;15.52;4.97;;;18.40;51.00;;;;;;5029407;28;20038;-75
2022/12/13 05:38:12;;;;;;;10.57;5.00;;;18.40;51.10;;;;;;5028543;28;20022;-74
2022/12/13 05:40:38;;;;;;;11.75;4.50;;;18.40;51.20;;;;;;5028684;28;20029;-75
2022/12/13 05:43:04;;;;;;;8.20;4.00;;;18.40;51.10;;;;;;5029671;28;20075;-75
2022/12/13 05:45:31;;;;;;;8.00;4.18;;;18.40;51.10;;;;;;5029957;28;20048;-74
2022/12/13 05:47:57;;;;;;;11.50;4.07;;;18.40;51.10;;;;;;5028717;28;20424;-74
2022/12/13 05:50:24;;;;;;;7.35;3.97;;;18.30;51.70;;;;;;5028965;28;20098;-74
2022/12/13 05:52:50;;;;;;;10.80;4.25;;;18.30;51.20;;;;;;5011535;28;20434;-74
2022/12/13 05:55:16;;;;;;;9.95;4.00;;;18.40;51.30;;;;;;5028095;28;20063;-74
2022/12/13 05:57:42;;;;;;;7.82;4.35;;;18.30;51.20;;;;;;5029765;28;20033;-75
2022/12/13 06:00:10;;;;;;;9.95;4.32;;;18.30;51.10;;;;;;5029899;28;20033;-75
2022/12/13 06:02:39;;;;;;;7.47;4.20;;;18.30;51.50;;;;;;5027845;28;20321;-75
2022/12/13 06:05:06;;;;;;;9.40;3.53;;;18.30;51.30;;;;;;5029169;28;20018;-75
2022/12/13 06:07:32;;;;;;;10.55;4.25;;;18.30;51.50;;;;;;5031250;28;20052;-75
2022/12/13 06:09:58;;;;;;;8.82;4.20;;;18.30;51.40;;;;;;5032101;28;20029;-75
2022/12/13 06:12:24;;;;;;;6.40;3.97;;;18.30;51.50;;;;;;5033161;28;20029;-75
2022/12/13 06:14:49;;;;;;;9.20;3.90;;;18.30;51.50;;;;;;5033063;28;20029;-75
2022/12/13 06:17:15;;;;;;;7.18;3.85;;;18.30;51.60;;;;;;5031949;28;20393;-76
2022/12/13 06:19:41;;;;;;;9.68;4.15;;;18.30;51.60;;;;;;5031392;28;20037;-75
2022/12/13 06:22:07;;;;;;;7.57;4.03;;;18.30;51.60;;;;;;5032810;28;20032;-76
2022/12/13 06:24:33;;;;;;;20.05;4.63;;;18.40;51.80;;;;;;5032598;28;20087;-76
2022/12/13 06:26:59;;;;;;;11.48;4.30;;;18.40;51.60;;;;;;5032661;28;20021;-76
2022/12/13 06:29:25;;;;;;;6.80;3.60;;;18.40;51.50;;;;;;5034029;28;20048;-75
2022/12/13 06:32:02;;;;;;;9.95;4.53;;;18.40;51.50;;;;;;5032716;28;20029;-76
2022/12/13 06:34:32;;;;;;;7.15;3.97;;;18.40;51.50;;;;;;5030391;28;20077;-75
2022/12/13 06:36:59;;;;;;;11.75;4.20;;;18.40;51.60;;;;;;5031104;28;20021;-75
2022/12/13 06:39:25;;;;;;;8.75;3.92;;;18.40;51.90;;;;;;5033001;28;20029;-75
2022/12/13 06:41:50;;;;;;;8.05;3.97;;;18.40;51.80;;;;;;5030517;28;20029;-75
2022/12/13 06:44:16;;;;;;;10.52;4.53;;;18.40;51.70;;;;;;5032575;28;20021;-75
2022/12/13 06:46:42;;;;;;;9.60;4.13;;;18.40;52.00;;;;;;5032369;28;20025;-75
2022/12/13 06:49:08;;;;;;;7.65;4.13;;;18.40;51.90;;;;;;5032510;28;20021;-75
2022/12/13 06:51:34;;;;;;;7.18;4.00;;;18.40;52.10;;;;;;5032278;28;20083;-74
2022/12/13 06:54:03;;;;;;;7.88;3.88;;;18.50;51.50;;;;;;5032150;28;20112;-75
2022/12/13 06:56:29;;;;;;;9.20;4.37;;;18.40;51.50;;;;;;5029570;28;20520;-75
2022/12/13 06:58:57;;;;;;;7.15;4.03;;;18.40;51.50;;;;;;5014290;28;20752;-75
2022/12/13 07:01:23;;;;;;;8.70;4.13;;;18.50;51.80;;;;;;5031641;28;20385;-76
2022/12/13 07:03:49;;;;;;;7.47;4.15;;;18.40;51.30;;;;;;5032074;28;20029;-76
2022/12/13 07:06:19;;;;;;;8.52;4.10;;;18.50;51.50;;;;;;5031893;28;20029;-76
2022/12/13 07:08:54;;;;;;;15.05;4.40;;;18.50;52.00;;;;;;5030736;28;20306;-75
2022/12/13 07:11:31;;;;;;;7.50;3.92;;;18.40;51.80;;;;;;5032370;28;20048;-75
2022/12/13 07:13:58;;;;;;;7.95;4.10;;;18.40;52.10;;;;;;5031904;28;20017;-75
2022/12/13 07:16:25;;;;;;;6.68;4.10;;;18.50;52.00;;;;;;5031127;28;20030;-74
2022/12/13 07:18:56;;;;;;;10.13;4.55;;;18.40;51.60;;;;;;5031124;28;20033;-75
2022/12/13 07:21:23;;;;;;;8.38;4.00;;;18.40;51.80;;;;;;5010783;28;20448;-74
2022/12/13 07:23:49;;;;;;;6.35;4.13;;;18.40;52.10;;;;;;5029309;28;20413;-75
2022/12/13 07:26:15;;;;;;;8.80;4.65;;;18.40;52.10;;;;;;5030764;28;20104;-75
2022/12/13 07:28:41;;;;;;;6.63;4.28;;;18.40;51.80;;;;;;5029781;28;20037;-75
2022/12/13 07:31:08;;;;;;;8.13;4.63;;;18.40;51.80;;;;;;5028196;28;20049;-76
2022/12/13 07:33:35;;;;;;;7.47;4.15;;;18.40;51.90;;;;;;5030283;28;20022;-75
2022/12/13 07:36:02;;;;;;;7.05;4.38;;;18.40;51.90;;;;;;5031168;28;20017;-75
2022/12/13 07:38:28;;;;;;;6.63;3.90;;;18.40;51.80;;;;;;5030508;28;20028;-75
2022/12/13 07:40:56;;;;;;;8.27;4.32;;;18.40;52.00;;;;;;5030523;28;20486;-75
2022/12/13 07:43:22;;;;;;;9.77;4.55;;;18.40;53.20;;;;;;5031180;28;20056;-75
2022/12/13 07:45:48;;;;;;;7.80;3.95;;;18.40;52.70;;;;;;5030730;28;20117;-75
2022/12/13 07:48:14;;;;;;;8.35;3.97;;;18.40;52.20;;;;;;5031039;28;20096;-75
2022/12/13 07:50:40;;;;;;;10.68;4.82;;;18.40;52.00;;;;;;5032508;28;20029;-75
2022/12/13 07:53:07;;;;;;;6.55;3.83;;;18.50;53.20;;;;;;5031026;28;20550;-76
2022/12/13 07:55:33;;;;;;;12.70;4.05;;;18.50;52.90;;;;;;4995912;28;20029;-76
2022/12/13 07:58:14;;;;;;;9.40;4.82;;;18.40;53.10;;;;;;5029997;28;20057;-76
2022/12/13 08:00:42;;;;;;;7.57;4.35;;;18.50;52.60;;;;;;5030296;28;20492;-75
2022/12/13 08:03:08;;;;;;;8.75;3.92;;;18.50;52.50;;;;;;5030382;28;20435;-75
2022/12/13 08:05:35;;;;;;;9.32;5.03;;;18.50;52.50;;;;;;5029296;28;20022;-75
2022/12/13 08:08:03;;;;;;;8.85;4.55;;;18.40;52.40;;;;;;5030717;28;20032;-76
2022/12/13 08:10:29;;;;;;;11.05;4.68;;;18.40;53.00;;;;;;5031137;28;20129;-75
2022/12/13 08:12:55;;;;;;;6.88;4.35;;;18.40;52.40;;;;;;5029388;28;20033;-75
2022/12/13 08:15:22;;;;;;;13.25;4.68;;;18.50;52.40;;;;;;5029515;28;20033;-75
2022/12/13 08:17:48;;;;;;;10.75;4.35;;;18.40;52.50;;;;;;5031803;28;20025;-76
2022/12/13 08:20:14;;;;;;;8.02;4.07;;;18.40;52.50;;;;;;5026802;28;20128;-75
2022/12/13 08:22:40;;;;;;;11.40;4.72;;;18.50;52.00;;;;;;5030682;28;20545;-75
2022/12/13 08:25:06;;;;;;;12.70;4.90;;;18.50;51.50;;;;;;5028201;28;20021;-76
2022/12/13 08:27:33;;;;;;;18.63;5.43;;;18.50;52.40;;;;;;5031900;28;20033;-76
2022/12/13 08:29:58;;;;;;;12.82;4.55;;;18.50;52.20;;;;;;5031379;28;21087;-76
2022/12/13 08:32:25;;;;;;;14.07;5.03;;;18.60;52.60;;;;;;5030548;28;20104;-77
2022/12/13 08:34:50;;;;;;;7.82;4.65;;;18.50;52.90;;;;;;5012204;28;20033;-79
2022/12/13 08:37:16;;;;;;;8.18;4.72;;;18.50;53.10;;;;;;5013521;28;20084;-78
2022/12/13 08:39:43;;;;;;;11.73;4.70;;;18.50;53.30;;;;;;5028031;28;20034;-76
2022/12/13 08:42:16;;;;;;;9.30;5.00;;;18.50;53.20;;;;;;5029665;28;20029;-78
2022/12/13 08:44:42;;;;;;;9.20;4.85;;;18.50;53.10;;;;;;5030322;28;20029;-76
2022/12/13 08:47:08;;;;;;;13.35;4.25;;;18.50;52.60;;;;;;5029615;28;20473;-77
2022/12/13 08:49:34;;;;;;;23.48;4.78;;;18.50;54.10;;;;;;5028069;28;20462;-76
2022/12/13 08:52:00;;;;;;;17.30;6.55;;;18.50;53.80;;;;;;5030110;28;20100;-76
2022/12/13 08:54:25;;;;;;;10.98;5.70;;;18.50;53.20;;;;;;5030032;28;20056;-76
2022/12/13 08:56:51;;;;;;;14.07;5.20;;;18.40;53.20;;;;;;5031452;28;20026;-76
2022/12/13 08:59:17;;;;;;;16.85;5.68;;;18.40;53.40;;;;;;5030410;28;20091;-76
2022/12/13 09:01:43;;;;;;;10.25;5.13;;;18.40;53.40;;;;;;5031418;28;20025;-76
2022/12/13 09:04:09;;;;;;;15.68;5.53;;;18.40;53.40;;;;;;5031184;28;20030;-76
2022/12/13 09:06:36;;;;;;;11.32;4.82;;;18.40;53.60;;;;;;5030339;28;20041;-76
2022/12/13 09:09:02;;;;;;;11.88;5.35;;;18.40;54.10;;;;;;5032317;28;20025;-76
2022/12/13 09:11:28;;;;;;;9.20;5.28;;;18.40;53.30;;;;;;5013900;28;20045;-76
2022/12/13 09:13:54;;;;;;;13.52;5.03;;;18.40;53.50;;;;;;5030935;28;20056;-76
2022/12/13 09:16:22;;;;;;;11.85;5.50;;;18.40;53.60;;;;;;5031637;28;20563;-76
2022/12/13 09:18:49;;;;;;;9.98;5.05;;;18.40;53.40;;;;;;5031401;28;20044;-76
2022/12/13 09:21:15;;;;;;;11.07;4.43;;;18.40;53.60;;;;;;5030198;28;20193;-76
2022/12/13 09:23:41;;;;;;;9.93;5.32;;;18.40;53.50;;;;;;5029743;28;20356;-76
2022/12/13 09:26:09;;;;;;;8.38;4.88;;;18.40;53.30;;;;;;5031436;28;20521;-77
2022/12/13 09:28:36;;;;;;;11.57;5.30;;;18.40;53.20;;;;;;5031093;28;20424;-77
2022/12/13 09:31:10;;;;;;;9.43;5.13;;;18.40;53.30;;;;;;5031105;28;20033;-77
2022/12/13 09:33:36;;;;;;;10.18;4.63;;;18.40;53.10;;;;;;5030876;28;20029;-77
2022/12/13 09:36:05;;;;;;;8.85;5.03;;;18.40;53.50;;;;;;5031098;28;20097;-76
2022/12/13 09:38:34;;;;;;;11.98;5.88;;;18.40;53.20;;;;;;5031087;28;20519;-76
2022/12/13 09:41:16;;;;;;;10.23;5.10;;;18.40;53.10;;;;;;5031112;28;20167;-76
2022/12/13 09:43:42;;;;;;;8.52;5.00;;;18.40;53.10;;;;;;5034706;28;20596;-76
2022/12/13 09:46:22;;;;;;;10.77;5.10;;;18.50;53.30;;;;;;5034860;28;20033;-76
2022/12/13 09:48:50;;;;;;;8.57;4.68;;;18.40;53.20;;;;;;5033777;28;20040;-76
2022/12/13 09:51:17;;;;;;;9.88;5.22;;;18.50;53.20;;;;;;5033686;28;20030;-76
2022/12/13 09:53:47;;;;;;;10.02;5.28;;;18.50;53.00;;;;;;5000494;28;20044;-76
2022/12/13 09:56:21;;;;;;;9.50;5.00;;;18.50;53.10;;;;;;5033205;28;20022;-76
2022/12/13 09:58:49;;;;;;;12.20;5.55;;;18.50;53.30;;;;;;5030752;28;20080;-76
2022/12/13 10:01:15;;;;;;;9.10;5.03;;;18.50;53.30;;;;;;5033392;28;20049;-76
2022/12/13 10:03:45;;;;;;;10.68;5.53;;;18.50;53.00;;;;;;5015942;28;20044;-74
2022/12/13 10:06:14;;;;;;;11.93;5.55;;;18.50;52.90;;;;;;5031881;28;20473;-76
2022/12/13 10:09:00;;;;;;;9.93;5.10;;;18.50;52.90;;;;;;5033147;28;20045;-76
2022/12/13 10:11:28;;;;;;;10.75;5.43;;;18.50;52.80;;;;;;5016325;28;20036;-76
2022/12/13 10:14:15;;;;;;;13.02;5.80;;;18.50;52.70;;;;;;5032008;28;20511;-76
2022/12/13 10:16:46;;;;;;;11.63;5.15;;;18.50;52.90;;;;;;5034392;28;20029;-75
2022/12/13 10:19:37;;;;;;;10.45;5.18;;;18.60;53.00;;;;;;5034220;28;20035;-76
2022/12/13 10:22:10;;;;;;;8.98;4.85;;;18.60;53.00;;;;;;5032963;28;20104;-76
2022/12/13 10:24:52;;;;;;;11.02;5.20;;;18.50;53.30;;;;;;5033830;28;20033;-76
2022/12/13 10:27:34;;;;;;;10.73;5.22;;;18.50;52.80;;;;;;5031339;28;20535;-77
2022/12/13 10:30:15;;;;;;;11.82;4.97;;;18.60;52.90;;;;;;5033913;28;20037;-76
2022/12/13 10:32:48;;;;;;;10.27;4.60;;;18.50;53.20;;;;;;5032708;28;20034;-76
2022/12/13 10:35:24;;;;;;;8.85;5.28;;;18.50;53.00;;;;;;5032604;28;20397;-76
2022/12/13 10:37:51;;;;;;;10.35;4.80;;;18.50;53.10;;;;;;5032937;28;20029;-76
2022/12/13 10:40:35;;;;;;;9.80;5.22;;;18.50;53.10;;;;;;5032648;28;20029;-76
2022/12/13 10:43:13;;;;;;;10.15;4.93;;;18.50;53.50;;;;;;5032224;28;20160;-76
2022/12/13 10:45:41;;;;;;;12.27;4.75;;;18.50;53.20;;;;;;5032372;28;20029;-77
2022/12/13 10:48:22;;;;;;;9.35;4.95;;;18.50;53.20;;;;;;5032558;28;20021;-75
2022/12/13 10:51:06;;;;;;;10.27;5.13;;;18.50;53.00;;;;;;5033737;28;20079;-75
2022/12/13 10:53:35;;;;;;;10.85;5.03;;;18.50;53.30;;;;;;5032449;28;20036;-76
2022/12/13 10:56:02;;;;;;;9.63;5.05;;;18.50;52.90;;;;;;5012582;28;20551;-76
2022/12/13 10:58:38;;;;;;;10.18;5.60;;;18.50;53.30;;;;;;5030746;28;20065;-76
2022/12/13 11:01:27;;;;;;;10.93;4.65;;;18.50;53.10;;;;;;5012521;28;20029;-76
2022/12/13 11:04:04;;;;;;;10.02;5.13;;;18.50;53.40;;;;;;5031927;28;20033;-75
2022/12/13 11:06:42;;;;;;;10.75;5.20;;;18.50;52.90;;;;;;5032277;28;20037;-76
2022/12/13 11:09:31;;;;;;;10.63;4.90;;;18.50;53.10;;;;;;5025195;28;20026;-75
2022/12/13 11:12:01;;;;;;;8.65;4.53;;;18.40;53.50;;;;;;5030443;28;20025;-76
2022/12/13 11:14:32;;;;;;;10.32;4.82;;;18.50;53.40;;;;;;5032579;28;20072;-76
2022/12/13 11:17:07;;;;;;;8.85;4.75;;;18.50;53.30;;;;;;5030882;28;20032;-75
2022/12/13 11:19:54;;;;;;;7.65;4.78;;;18.50;53.00;;;;;;5028181;28;20061;-76
2022/12/13 11:22:27;;;;;;;11.60;5.00;;;18.50;53.00;;;;;;5030591;28;20022;-75
2022/12/13 11:24:58;;;;;;;10.63;5.45;;;18.50;53.10;;;;;;5041432;22;20140;-76
2022/12/13 11:27:59;;;;;;;9.45;4.80;;;18.60;53.30;;;;;;5029064;28;20029;-76
2022/12/13 11:30:45;;;;;;;9.38;5.07;;;18.50;53.00;;;;;;5025846;28;20025;-76
2022/12/13 11:33:52;;;;;;;10.00;4.60;;;18.60;52.60;;;;;;5030289;28;20462;-76
2022/12/13 11:36:47;;;;;;;8.82;5.32;;;18.60;52.80;;;;;;4995235;28;20037;-76
2022/12/13 11:39:33;;;;;;;10.75;5.10;;;18.60;53.00;;;;;;5016717;28;20448;-76
2022/12/13 11:42:24;;;;;;;9.85;5.00;;;18.70;53.10;;;;;;5011360;28;20109;-76
2022/12/13 11:45:12;;;;;;;9.05;4.72;;;18.70;53.20;;;;;;5011193;28;20473;-76
2022/12/13 11:47:45;;;;;;;10.85;5.32;;;18.70;53.30;;;;;;5013098;28;20017;-76
2022/12/13 11:50:35;;;;;;;8.70;4.80;;;18.70;53.50;;;;;;5011983;28;20022;-76
2022/12/13 11:53:33;;;;;;;9.75;4.82;;;18.70;53.70;;;;;;5011458;28;20034;-76
2022/12/13 11:56:34;;;;;;;9.57;4.65;;;18.70;53.70;;;;;;4996122;28;20037;-76
2022/12/13 11:59:29;;;;;;;10.55;4.90;;;18.60;53.70;;;;;;5012020;28;20026;-76
2022/12/13 12:01:58;;;;;;;9.63;5.03;;;18.70;53.80;;;;;;5007927;28;20034;-76
2022/12/13 12:04:45;;;;;;;9.95;5.10;;;18.60;53.80;;;;;;5011372;28;20151;-76
2022/12/13 12:07:46;;;;;;;17.40;5.75;;;18.70;54.10;;;;;;5006001;28;20033;-75
2022/12/13 12:10:12;;;;;;;13.55;5.00;;;18.70;54.40;;;;;;5018199;28;20123;-75
2022/12/13 12:12:41;;;;;;;12.77;5.20;;;18.60;53.50;;;;;;5008259;28;20481;-75
2022/12/13 12:15:14;;;;;;;12.27;5.63;;;18.60;54.20;;;;;;5007928;28;20112;-75
2022/12/13 12:17:41;;;;;;;15.55;5.72;;;18.70;53.70;;;;;;5008575;28;20026;-75
2022/12/13 12:20:15;;;;;;;18.23;6.28;;;18.80;54.30;;;;;;5009831;28;20026;-75
2022/12/13 12:23:07;;;;;;;11.73;5.97;;;18.80;53.90;;;;;;5008790;28;20072;-75
2022/12/13 12:25:46;;;;;;;28.90;6.32;;;18.80;55.80;;;;;;5008729;28;20317;-75
2022/12/13 12:28:40;;;;;;;22.67;6.07;;;18.90;57.50;;;;;;4999813;28;20076;-76
2022/12/13 12:31:12;;;;;;;14.57;6.25;;;19.00;57.70;;;;;;4990563;28;20437;-86
2022/12/13 12:33:59;;;;;;;14.93;5.88;;;19.00;55.40;;;;;;5023807;28;20022;-78
2022/12/13 12:36:25;;;;;;;18.35;8.70;;;19.00;55.20;;;;;;5009248;28;20496;-75
2022/12/13 12:39:01;;;;;;;18.95;8.55;;;19.10;56.80;;;;;;5007375;28;20149;-76
2022/12/13 12:42:30;;;;;;;15.07;6.70;;;19.10;55.60;;;;;;5007882;28;20042;-74
2022/12/13 12:45:38;;;;;;;13.88;8.07;;;19.20;55.30;;;;;;4969458;28;20096;-76
2022/12/13 12:48:11;;;;;;;17.23;9.15;;;19.20;54.80;;;;;;4979150;28;20041;-75
2022/12/13 12:50:49;;;;;;;18.67;8.90;;;19.30;55.00;;;;;;5006999;28;20034;-75
2022/12/13 12:53:22;;;;;;;21.35;10.15;;;19.30;54.70;;;;;;5007418;28;20029;-78
2022/12/13 12:55:59;;;;;;;20.65;9.13;;;19.20;54.30;;;;;;5007763;28;20469;-75
2022/12/13 12:58:49;;;;;;;18.67;8.73;;;19.20;54.20;;;;;;5008953;28;20029;-74
2022/12/13 13:01:30;;;;;;;18.42;8.45;;;19.20;53.30;;;;;;5007372;28;20398;-76
2022/12/13 13:04:00;;;;;;;14.27;6.95;;;19.20;53.30;;;;;;4999938;28;20037;-75